Anacostia, District of Columbia
Current Conditions -  °F | °C
As of 6:52 AM on Thursday 23 Oct 2014 (Local Time) from KDCA Reporting Station
Overcast Overcast  
Wind Chill: 13°   Ceiling: 3700
Heat Index: 13°   Visibility: 10mi
Dew Point:   Wind: 17mph
Humidity: 59%   Direction: 320°NW
Pressure: 29.9"   Gusts: 28mph
Location:  38.8618°N, 77.0026°W
Report Text: KDCA 231052Z 32015G24KT 10SM OVC037 13/05 A2990 RMK AO2 SLP124 T01280050
Loading
Personal Weather Stations






























Interactive Weather Map New forecast layout! Learn more

10-Day Weather Forecast

Advertisements
Track Severe Weather on mobile